sensor_id;sensor_type;location;lat;lon;timestamp;P1;durP1;ratioP1;P2;durP2;ratioP2
18265;SDS011;9259;48.194;16.322;2022-08-03T00:01:12;6.95;;;1.92;;
18265;SDS011;9259;48.194;16.322;2022-08-03T00:03:42;3.33;;;2.20;;
18265;SDS011;9259;48.194;16.322;2022-08-03T00:06:13;2.42;;;1.90;;
18265;SDS011;9259;48.194;16.322;2022-08-03T00:08:41;5.10;;;2.15;;
18265;SDS011;9259;48.194;16.322;2022-08-03T00:11:09;2.53;;;2.13;;
18265;SDS011;9259;48.194;16.322;2022-08-03T00:13:37;5.63;;;2.30;;
18265;SDS011;9259;48.194;16.322;2022-08-03T00:16:05;3.17;;;2.15;;
18265;SDS011;9259;48.194;16.322;2022-08-03T00:18:35;3.33;;;2.30;;
18265;SDS011;9259;48.194;16.322;2022-08-03T00:21:03;2.75;;;2.20;;
18265;SDS011;9259;48.194;16.322;2022-08-03T00:23:31;4.07;;;2.25;;
18265;SDS011;9259;48.194;16.322;2022-08-03T00:25:59;2.85;;;2.00;;
18265;SDS011;9259;48.194;16.322;2022-08-03T00:28:27;3.33;;;2.22;;
18265;SDS011;9259;48.194;16.322;2022-08-03T00:30:55;5.28;;;1.90;;
18265;SDS011;9259;48.194;16.322;2022-08-03T00:33:23;3.20;;;2.10;;
18265;SDS011;9259;48.194;16.322;2022-08-03T00:35:53;2.22;;;1.77;;
18265;SDS011;9259;48.194;16.322;2022-08-03T00:38:21;4.57;;;2.30;;
18265;SDS011;9259;48.194;16.322;2022-08-03T00:40:49;3.20;;;2.20;;
18265;SDS011;9259;48.194;16.322;2022-08-03T00:43:17;4.05;;;2.20;;
18265;SDS011;9259;48.194;16.322;2022-08-03T00:45:45;4.93;;;2.47;;
18265;SDS011;9259;48.194;16.322;2022-08-03T00:48:14;3.08;;;2.20;;
18265;SDS011;9259;48.194;16.322;2022-08-03T00:50:42;3.58;;;2.25;;
18265;SDS011;9259;48.194;16.322;2022-08-03T00:53:11;3.22;;;2.28;;
18265;SDS011;9259;48.194;16.322;2022-08-03T00:55:40;8.50;;;2.20;;
18265;SDS011;9259;48.194;16.322;2022-08-03T00:58:08;3.80;;;2.33;;
18265;SDS011;9259;48.194;16.322;2022-08-03T01:00:37;3.53;;;2.20;;
18265;SDS011;9259;48.194;16.322;2022-08-03T01:03:05;4.97;;;2.60;;
18265;SDS011;9259;48.194;16.322;2022-08-03T01:05:36;3.72;;;2.20;;
18265;SDS011;9259;48.194;16.322;2022-08-03T01:08:07;3.70;;;2.38;;
18265;SDS011;9259;48.194;16.322;2022-08-03T01:10:41;2.58;;;2.22;;
18265;SDS011;9259;48.194;16.322;2022-08-03T01:13:16;3.80;;;2.30;;
18265;SDS011;9259;48.194;16.322;2022-08-03T01:15:52;3.10;;;2.10;;
18265;SDS011;9259;48.194;16.322;2022-08-03T01:18:24;3.08;;;1.90;;
18265;SDS011;9259;48.194;16.322;2022-08-03T01:20:57;3.42;;;2.05;;
18265;SDS011;9259;48.194;16.322;2022-08-03T01:23:36;3.58;;;2.10;;
18265;SDS011;9259;48.194;16.322;2022-08-03T01:26:22;3.85;;;2.00;;
18265;SDS011;9259;48.194;16.322;2022-08-03T01:29:07;5.00;;;2.47;;
18265;SDS011;9259;48.194;16.322;2022-08-03T01:31:59;2.65;;;2.33;;
18265;SDS011;9259;48.194;16.322;2022-08-03T01:34:30;3.53;;;2.00;;
18265;SDS011;9259;48.194;16.322;2022-08-03T01:37:00;2.67;;;2.28;;
18265;SDS011;9259;48.194;16.322;2022-08-03T01:39:30;3.33;;;2.17;;
18265;SDS011;9259;48.194;16.322;2022-08-03T01:42:00;2.95;;;2.30;;
18265;SDS011;9259;48.194;16.322;2022-08-03T01:44:32;3.00;;;2.22;;
18265;SDS011;9259;48.194;16.322;2022-08-03T01:47:03;4.07;;;2.08;;
18265;SDS011;9259;48.194;16.322;2022-08-03T01:49:32;4.20;;;2.10;;
18265;SDS011;9259;48.194;16.322;2022-08-03T01:52:03;2.95;;;2.10;;
18265;SDS011;9259;48.194;16.322;2022-08-03T01:54:34;2.58;;;2.17;;
18265;SDS011;9259;48.194;16.322;2022-08-03T01:57:03;5.35;;;2.30;;
18265;SDS011;9259;48.194;16.322;2022-08-03T01:59:33;3.33;;;2.40;;
18265;SDS011;9259;48.194;16.322;2022-08-03T02:02:06;3.58;;;2.30;;
18265;SDS011;9259;48.194;16.322;2022-08-03T02:04:35;2.85;;;2.05;;
18265;SDS011;9259;48.194;16.322;2022-08-03T02:07:04;3.95;;;2.42;;
18265;SDS011;9259;48.194;16.322;2022-08-03T02:09:33;3.55;;;2.20;;
18265;SDS011;9259;48.194;16.322;2022-08-03T02:12:06;4.80;;;2.20;;
18265;SDS011;9259;48.194;16.322;2022-08-03T02:14:35;4.07;;;2.40;;
18265;SDS011;9259;48.194;16.322;2022-08-03T02:17:05;3.83;;;2.30;;
18265;SDS011;9259;48.194;16.322;2022-08-03T02:19:34;2.85;;;2.30;;
18265;SDS011;9259;48.194;16.322;2022-08-03T02:22:02;2.78;;;2.28;;
18265;SDS011;9259;48.194;16.322;2022-08-03T02:24:33;2.97;;;2.30;;
18265;SDS011;9259;48.194;16.322;2022-08-03T02:27:01;3.67;;;2.40;;
18265;SDS011;9259;48.194;16.322;2022-08-03T02:29:35;4.63;;;2.65;;
18265;SDS011;9259;48.194;16.322;2022-08-03T02:32:03;3.47;;;2.17;;
18265;SDS011;9259;48.194;16.322;2022-08-03T02:34:33;3.28;;;2.30;;
18265;SDS011;9259;48.194;16.322;2022-08-03T02:37:01;3.40;;;2.20;;
18265;SDS011;9259;48.194;16.322;2022-08-03T02:39:31;3.45;;;2.30;;
18265;SDS011;9259;48.194;16.322;2022-08-03T02:41:59;2.40;;;2.20;;
18265;SDS011;9259;48.194;16.322;2022-08-03T02:44:29;4.05;;;2.47;;
18265;SDS011;9259;48.194;16.322;2022-08-03T02:46:59;4.55;;;2.53;;
18265;SDS011;9259;48.194;16.322;2022-08-03T02:49:31;2.70;;;2.22;;
18265;SDS011;9259;48.194;16.322;2022-08-03T02:51:59;2.97;;;2.05;;
18265;SDS011;9259;48.194;16.322;2022-08-03T02:54:28;3.05;;;2.13;;
18265;SDS011;9259;48.194;16.322;2022-08-03T02:56:57;3.63;;;2.05;;
18265;SDS011;9259;48.194;16.322;2022-08-03T02:59:26;4.60;;;2.35;;
18265;SDS011;9259;48.194;16.322;2022-08-03T03:01:55;4.40;;;2.22;;
18265;SDS011;9259;48.194;16.322;2022-08-03T03:04:24;4.30;;;2.08;;
18265;SDS011;9259;48.194;16.322;2022-08-03T03:06:54;3.60;;;2.55;;
18265;SDS011;9259;48.194;16.322;2022-08-03T03:09:22;5.38;;;2.42;;
18265;SDS011;9259;48.194;16.322;2022-08-03T03:11:51;3.72;;;2.25;;
18265;SDS011;9259;48.194;16.322;2022-08-03T03:14:19;4.18;;;2.42;;
18265;SDS011;9259;48.194;16.322;2022-08-03T03:16:49;3.58;;;2.25;;
18265;SDS011;9259;48.194;16.322;2022-08-03T03:19:18;3.67;;;2.50;;
18265;SDS011;9259;48.194;16.322;2022-08-03T03:21:46;3.60;;;2.58;;
18265;SDS011;9259;48.194;16.322;2022-08-03T03:24:16;7.00;;;2.75;;
18265;SDS011;9259;48.194;16.322;2022-08-03T03:26:44;6.32;;;2.72;;
18265;SDS011;9259;48.194;16.322;2022-08-03T03:29:13;3.88;;;2.80;;
18265;SDS011;9259;48.194;16.322;2022-08-03T03:31:41;3.35;;;2.50;;
18265;SDS011;9259;48.194;16.322;2022-08-03T03:34:09;4.97;;;2.63;;
18265;SDS011;9259;48.194;16.322;2022-08-03T03:36:38;4.10;;;2.20;;
18265;SDS011;9259;48.194;16.322;2022-08-03T03:39:06;3.67;;;2.83;;
18265;SDS011;9259;48.194;16.322;2022-08-03T03:41:36;3.92;;;2.45;;
18265;SDS011;9259;48.194;16.322;2022-08-03T03:44:06;3.55;;;2.75;;
18265;SDS011;9259;48.194;16.322;2022-08-03T03:46:34;5.25;;;2.80;;
18265;SDS011;9259;48.194;16.322;2022-08-03T03:49:02;3.80;;;2.58;;
18265;SDS011;9259;48.194;16.322;2022-08-03T03:51:32;5.53;;;2.88;;
18265;SDS011;9259;48.194;16.322;2022-08-03T03:54:01;3.75;;;2.50;;
18265;SDS011;9259;48.194;16.322;2022-08-03T03:56:30;3.80;;;2.60;;
18265;SDS011;9259;48.194;16.322;2022-08-03T03:59:00;5.68;;;2.50;;
18265;SDS011;9259;48.194;16.322;2022-08-03T04:01:28;11.55;;;2.80;;
18265;SDS011;9259;48.194;16.322;2022-08-03T04:03:56;4.72;;;2.40;;
18265;SDS011;9259;48.194;16.322;2022-08-03T04:06:44;3.65;;;2.50;;
18265;SDS011;9259;48.194;16.322;2022-08-03T04:09:35;5.50;;;2.70;;
18265;SDS011;9259;48.194;16.322;2022-08-03T04:12:23;5.35;;;2.70;;
18265;SDS011;9259;48.194;16.322;2022-08-03T04:14:55;5.28;;;2.63;;
18265;SDS011;9259;48.194;16.322;2022-08-03T04:17:24;4.10;;;2.90;;
18265;SDS011;9259;48.194;16.322;2022-08-03T04:19:54;4.25;;;2.95;;
18265;SDS011;9259;48.194;16.322;2022-08-03T04:22:25;4.07;;;2.58;;
18265;SDS011;9259;48.194;16.322;2022-08-03T04:24:55;4.40;;;2.80;;
18265;SDS011;9259;48.194;16.322;2022-08-03T04:27:27;3.88;;;2.70;;
18265;SDS011;9259;48.194;16.322;2022-08-03T04:29:59;4.60;;;2.50;;
18265;SDS011;9259;48.194;16.322;2022-08-03T04:32:29;4.65;;;2.50;;
18265;SDS011;9259;48.194;16.322;2022-08-03T04:35:04;4.25;;;2.90;;
18265;SDS011;9259;48.194;16.322;2022-08-03T04:37:34;4.95;;;3.00;;
18265;SDS011;9259;48.194;16.322;2022-08-03T04:40:12;5.75;;;3.25;;
18265;SDS011;9259;48.194;16.322;2022-08-03T04:42:41;5.70;;;2.90;;
18265;SDS011;9259;48.194;16.322;2022-08-03T04:45:11;7.28;;;2.50;;
18265;SDS011;9259;48.194;16.322;2022-08-03T04:47:40;6.15;;;2.70;;
18265;SDS011;9259;48.194;16.322;2022-08-03T04:50:09;4.35;;;2.65;;
18265;SDS011;9259;48.194;16.322;2022-08-03T04:52:37;4.43;;;2.40;;
18265;SDS011;9259;48.194;16.322;2022-08-03T04:55:06;5.85;;;2.70;;
18265;SDS011;9259;48.194;16.322;2022-08-03T04:57:34;4.55;;;2.58;;
18265;SDS011;9259;48.194;16.322;2022-08-03T05:00:03;7.25;;;3.00;;
18265;SDS011;9259;48.194;16.322;2022-08-03T05:02:33;7.65;;;2.55;;
18265;SDS011;9259;48.194;16.322;2022-08-03T05:05:01;6.28;;;2.75;;
18265;SDS011;9259;48.194;16.322;2022-08-03T05:07:29;5.90;;;2.60;;
18265;SDS011;9259;48.194;16.322;2022-08-03T05:09:57;6.68;;;2.80;;
18265;SDS011;9259;48.194;16.322;2022-08-03T05:12:25;7.18;;;3.20;;
18265;SDS011;9259;48.194;16.322;2022-08-03T05:14:54;5.85;;;2.70;;
18265;SDS011;9259;48.194;16.322;2022-08-03T05:17:22;4.28;;;2.78;;
18265;SDS011;9259;48.194;16.322;2022-08-03T05:19:51;6.47;;;2.90;;
18265;SDS011;9259;48.194;16.322;2022-08-03T05:22:25;10.00;;;2.90;;
18265;SDS011;9259;48.194;16.322;2022-08-03T05:24:53;7.35;;;4.60;;
18265;SDS011;9259;48.194;16.322;2022-08-03T05:27:22;12.35;;;5.40;;
18265;SDS011;9259;48.194;16.322;2022-08-03T05:29:50;15.82;;;8.32;;
18265;SDS011;9259;48.194;16.322;2022-08-03T05:32:18;12.52;;;3.60;;
18265;SDS011;9259;48.194;16.322;2022-08-03T05:34:46;10.13;;;3.80;;
18265;SDS011;9259;48.194;16.322;2022-08-03T05:37:15;6.55;;;4.18;;
18265;SDS011;9259;48.194;16.322;2022-08-03T05:39:43;5.03;;;2.90;;
18265;SDS011;9259;48.194;16.322;2022-08-03T05:42:13;5.72;;;3.45;;
18265;SDS011;9259;48.194;16.322;2022-08-03T05:44:43;7.65;;;3.00;;
18265;SDS011;9259;48.194;16.322;2022-08-03T05:47:11;7.75;;;3.20;;
18265;SDS011;9259;48.194;16.322;2022-08-03T05:49:39;6.05;;;2.33;;
18265;SDS011;9259;48.194;16.322;2022-08-03T05:52:07;4.18;;;2.70;;
18265;SDS011;9259;48.194;16.322;2022-08-03T05:54:37;7.70;;;2.50;;
18265;SDS011;9259;48.194;16.322;2022-08-03T05:57:05;7.78;;;2.60;;
18265;SDS011;9259;48.194;16.322;2022-08-03T05:59:33;9.07;;;2.70;;
18265;SDS011;9259;48.194;16.322;2022-08-03T06:02:01;4.28;;;2.70;;
18265;SDS011;9259;48.194;16.322;2022-08-03T06:04:29;5.20;;;2.13;;
18265;SDS011;9259;48.194;16.322;2022-08-03T06:06:57;4.80;;;2.65;;
18265;SDS011;9259;48.194;16.322;2022-08-03T06:09:25;4.95;;;2.60;;
18265;SDS011;9259;48.194;16.322;2022-08-03T06:11:55;3.17;;;2.40;;
18265;SDS011;9259;48.194;16.322;2022-08-03T06:14:23;2.40;;;2.10;;
18265;SDS011;9259;48.194;16.322;2022-08-03T06:16:51;8.82;;;2.25;;
18265;SDS011;9259;48.194;16.322;2022-08-03T06:19:19;4.38;;;2.40;;
18265;SDS011;9259;48.194;16.322;2022-08-03T06:21:49;5.35;;;2.40;;
18265;SDS011;9259;48.194;16.322;2022-08-03T06:24:17;3.33;;;2.28;;
18265;SDS011;9259;48.194;16.322;2022-08-03T06:26:45;5.38;;;2.30;;
18265;SDS011;9259;48.194;16.322;2022-08-03T06:29:14;5.43;;;2.05;;
18265;SDS011;9259;48.194;16.322;2022-08-03T06:31:42;3.40;;;1.88;;
18265;SDS011;9259;48.194;16.322;2022-08-03T06:34:10;5.22;;;2.08;;
18265;SDS011;9259;48.194;16.322;2022-08-03T06:36:38;4.78;;;2.45;;
18265;SDS011;9259;48.194;16.322;2022-08-03T06:39:06;3.22;;;2.00;;
18265;SDS011;9259;48.194;16.322;2022-08-03T06:41:34;4.65;;;2.00;;
18265;SDS011;9259;48.194;16.322;2022-08-03T06:44:03;3.63;;;2.22;;
18265;SDS011;9259;48.194;16.322;2022-08-03T06:46:33;3.42;;;2.13;;
18265;SDS011;9259;48.194;16.322;2022-08-03T06:49:01;4.13;;;2.13;;
18265;SDS011;9259;48.194;16.322;2022-08-03T06:51:29;4.03;;;2.63;;
18265;SDS011;9259;48.194;16.322;2022-08-03T06:53:57;3.67;;;2.25;;
18265;SDS011;9259;48.194;16.322;2022-08-03T06:56:25;6.22;;;3.00;;
18265;SDS011;9259;48.194;16.322;2022-08-03T06:58:53;8.35;;;3.00;;
18265;SDS011;9259;48.194;16.322;2022-08-03T07:01:21;5.63;;;2.72;;
18265;SDS011;9259;48.194;16.322;2022-08-03T07:03:50;8.45;;;2.80;;
18265;SDS011;9259;48.194;16.322;2022-08-03T07:06:19;8.75;;;2.55;;
18265;SDS011;9259;48.194;16.322;2022-08-03T07:08:47;3.42;;;2.28;;
18265;SDS011;9259;48.194;16.322;2022-08-03T07:11:15;9.13;;;2.95;;
18265;SDS011;9259;48.194;16.322;2022-08-03T07:13:43;7.82;;;2.60;;
18265;SDS011;9259;48.194;16.322;2022-08-03T07:16:11;5.63;;;2.17;;
18265;SDS011;9259;48.194;16.322;2022-08-03T07:18:39;5.35;;;2.53;;
18265;SDS011;9259;48.194;16.322;2022-08-03T07:21:08;5.95;;;2.10;;
18265;SDS011;9259;48.194;16.322;2022-08-03T07:23:37;6.53;;;2.70;;
18265;SDS011;9259;48.194;16.322;2022-08-03T07:26:05;5.72;;;2.80;;
18265;SDS011;9259;48.194;16.322;2022-08-03T07:28:33;5.95;;;2.55;;
18265;SDS011;9259;48.194;16.322;2022-08-03T07:31:02;5.70;;;2.60;;
18265;SDS011;9259;48.194;16.322;2022-08-03T07:33:30;8.57;;;2.55;;
18265;SDS011;9259;48.194;16.322;2022-08-03T07:35:58;4.63;;;2.58;;
18265;SDS011;9259;48.194;16.322;2022-08-03T07:38:27;5.00;;;2.22;;
18265;SDS011;9259;48.194;16.322;2022-08-03T07:40:55;5.07;;;2.55;;
18265;SDS011;9259;48.194;16.322;2022-08-03T07:43:23;6.50;;;2.50;;
18265;SDS011;9259;48.194;16.322;2022-08-03T07:45:51;4.57;;;2.58;;
18265;SDS011;9259;48.194;16.322;2022-08-03T07:48:19;4.55;;;2.30;;
18265;SDS011;9259;48.194;16.322;2022-08-03T07:50:47;3.17;;;2.15;;
18265;SDS011;9259;48.194;16.322;2022-08-03T07:53:16;5.43;;;2.17;;
18265;SDS011;9259;48.194;16.322;2022-08-03T07:55:45;5.22;;;2.00;;
18265;SDS011;9259;48.194;16.322;2022-08-03T07:58:13;5.53;;;2.40;;
18265;SDS011;9259;48.194;16.322;2022-08-03T08:00:42;2.65;;;2.10;;
18265;SDS011;9259;48.194;16.322;2022-08-03T08:03:10;4.82;;;2.53;;
18265;SDS011;9259;48.194;16.322;2022-08-03T08:05:38;4.97;;;2.10;;
18265;SDS011;9259;48.194;16.322;2022-08-03T08:08:06;5.78;;;2.25;;
18265;SDS011;9259;48.194;16.322;2022-08-03T08:10:35;4.25;;;2.17;;
18265;SDS011;9259;48.194;16.322;2022-08-03T08:13:05;4.03;;;2.20;;
18265;SDS011;9259;48.194;16.322;2022-08-03T08:15:33;3.72;;;2.20;;
18265;SDS011;9259;48.194;16.322;2022-08-03T08:18:01;5.25;;;2.25;;
18265;SDS011;9259;48.194;16.322;2022-08-03T08:20:30;4.07;;;2.10;;
18265;SDS011;9259;48.194;16.322;2022-08-03T08:23:00;4.07;;;1.80;;
18265;SDS011;9259;48.194;16.322;2022-08-03T08:25:30;2.40;;;1.73;;
18265;SDS011;9259;48.194;16.322;2022-08-03T08:27:59;2.33;;;1.67;;
18265;SDS011;9259;48.194;16.322;2022-08-03T08:30:30;2.50;;;1.65;;
18265;SDS011;9259;48.194;16.322;2022-08-03T08:32:59;5.55;;;1.88;;
18265;SDS011;9259;48.194;16.322;2022-08-03T08:35:27;3.28;;;1.67;;
18265;SDS011;9259;48.194;16.322;2022-08-03T08:37:55;3.45;;;1.70;;
18265;SDS011;9259;48.194;16.322;2022-08-03T08:40:25;2.47;;;1.55;;
18265;SDS011;9259;48.194;16.322;2022-08-03T08:42:54;3.88;;;1.70;;
18265;SDS011;9259;48.194;16.322;2022-08-03T08:45:22;3.10;;;1.65;;
18265;SDS011;9259;48.194;16.322;2022-08-03T08:47:51;2.65;;;1.67;;
18265;SDS011;9259;48.194;16.322;2022-08-03T08:50:21;7.22;;;1.83;;
18265;SDS011;9259;48.194;16.322;2022-08-03T08:52:49;2.95;;;1.80;;
18265;SDS011;9259;48.194;16.322;2022-08-03T08:55:21;2.50;;;1.80;;
18265;SDS011;9259;48.194;16.322;2022-08-03T08:57:51;4.35;;;1.83;;
18265;SDS011;9259;48.194;16.322;2022-08-03T09:00:23;4.72;;;1.77;;
18265;SDS011;9259;48.194;16.322;2022-08-03T09:02:53;5.25;;;1.60;;
18265;SDS011;9259;48.194;16.322;2022-08-03T09:05:21;5.70;;;1.77;;
18265;SDS011;9259;48.194;16.322;2022-08-03T09:07:49;2.70;;;1.58;;
18265;SDS011;9259;48.194;16.322;2022-08-03T09:10:17;4.82;;;1.70;;
18265;SDS011;9259;48.194;16.322;2022-08-03T09:12:47;4.53;;;1.63;;
18265;SDS011;9259;48.194;16.322;2022-08-03T09:15:20;3.65;;;1.90;;
18265;SDS011;9259;48.194;16.322;2022-08-03T09:17:49;5.47;;;2.00;;
18265;SDS011;9259;48.194;16.322;2022-08-03T09:20:19;5.18;;;1.95;;
18265;SDS011;9259;48.194;16.322;2022-08-03T09:22:56;3.20;;;1.80;;
18265;SDS011;9259;48.194;16.322;2022-08-03T09:25:26;2.55;;;1.90;;
18265;SDS011;9259;48.194;16.322;2022-08-03T09:28:02;5.15;;;2.05;;
18265;SDS011;9259;48.194;16.322;2022-08-03T09:30:34;3.85;;;2.40;;
18265;SDS011;9259;48.194;16.322;2022-08-03T09:33:03;4.32;;;1.90;;
18265;SDS011;9259;48.194;16.322;2022-08-03T09:35:33;4.43;;;2.00;;
18265;SDS011;9259;48.194;16.322;2022-08-03T09:38:07;4.00;;;1.85;;
18265;SDS011;9259;48.194;16.322;2022-08-03T09:40:36;3.20;;;1.98;;
18265;SDS011;9259;48.194;16.322;2022-08-03T09:43:05;1.90;;;1.60;;
18265;SDS011;9259;48.194;16.322;2022-08-03T09:45:33;4.15;;;1.80;;
18265;SDS011;9259;48.194;16.322;2022-08-03T09:50:53;2.70;;;1.83;;
18265;SDS011;9259;48.194;16.322;2022-08-03T09:53:21;2.38;;;2.00;;
18265;SDS011;9259;48.194;16.322;2022-08-03T09:55:51;2.65;;;1.80;;
18265;SDS011;9259;48.194;16.322;2022-08-03T09:58:20;3.97;;;1.70;;
18265;SDS011;9259;48.194;16.322;2022-08-03T10:00:53;4.47;;;1.80;;
18265;SDS011;9259;48.194;16.322;2022-08-03T10:03:22;3.30;;;1.80;;
18265;SDS011;9259;48.194;16.322;2022-08-03T10:05:56;3.75;;;1.90;;
18265;SDS011;9259;48.194;16.322;2022-08-03T10:08:25;2.42;;;1.88;;
18265;SDS011;9259;48.194;16.322;2022-08-03T10:10:53;3.58;;;1.77;;
18265;SDS011;9259;48.194;16.322;2022-08-03T10:13:23;3.53;;;1.67;;
18265;SDS011;9259;48.194;16.322;2022-08-03T10:15:51;3.83;;;1.70;;
18265;SDS011;9259;48.194;16.322;2022-08-03T10:18:19;6.20;;;1.50;;
18265;SDS011;9259;48.194;16.322;2022-08-03T10:20:48;3.05;;;1.60;;
18265;SDS011;9259;48.194;16.322;2022-08-03T10:23:19;1.45;;;1.30;;
18265;SDS011;9259;48.194;16.322;2022-08-03T10:25:51;9.05;;;1.92;;
18265;SDS011;9259;48.194;16.322;2022-08-03T10:28:21;2.67;;;1.85;;
18265;SDS011;9259;48.194;16.322;2022-08-03T10:30:50;2.15;;;1.63;;
18265;SDS011;9259;48.194;16.322;2022-08-03T10:33:19;3.70;;;1.77;;
18265;SDS011;9259;48.194;16.322;2022-08-03T10:35:53;2.63;;;1.48;;
18265;SDS011;9259;48.194;16.322;2022-08-03T10:38:25;2.70;;;1.58;;
18265;SDS011;9259;48.194;16.322;2022-08-03T10:40:59;4.95;;;2.30;;
18265;SDS011;9259;48.194;16.322;2022-08-03T10:43:30;4.07;;;1.88;;
18265;SDS011;9259;48.194;16.322;2022-08-03T10:46:02;1.90;;;1.60;;
18265;SDS011;9259;48.194;16.322;2022-08-03T10:48:34;2.65;;;1.60;;
18265;SDS011;9259;48.194;16.322;2022-08-03T10:51:02;4.22;;;1.52;;
18265;SDS011;9259;48.194;16.322;2022-08-03T10:53:36;3.53;;;1.60;;
18265;SDS011;9259;48.194;16.322;2022-08-03T10:56:11;8.80;;;1.60;;
18265;SDS011;9259;48.194;16.322;2022-08-03T11:05:36;4.15;;;1.60;;
18265;SDS011;9259;48.194;16.322;2022-08-03T11:08:25;4.25;;;1.70;;
18265;SDS011;9259;48.194;16.322;2022-08-03T11:10:59;1.83;;;1.52;;
18265;SDS011;9259;48.194;16.322;2022-08-03T11:13:28;3.88;;;1.67;;
18265;SDS011;9259;48.194;16.322;2022-08-03T11:16:00;1.83;;;1.60;;
18265;SDS011;9259;48.194;16.322;2022-08-03T11:18:30;2.20;;;1.55;;
18265;SDS011;9259;48.194;16.322;2022-08-03T11:20:58;2.83;;;1.60;;
18265;SDS011;9259;48.194;16.322;2022-08-03T11:23:40;2.60;;;1.80;;
18265;SDS011;9259;48.194;16.322;2022-08-03T11:26:14;3.15;;;1.73;;
18265;SDS011;9259;48.194;16.322;2022-08-03T11:28:43;4.20;;;1.80;;
18265;SDS011;9259;48.194;16.322;2022-08-03T11:34:15;3.95;;;1.90;;
18265;SDS011;9259;48.194;16.322;2022-08-03T11:39:53;2.28;;;1.73;;
18265;SDS011;9259;48.194;16.322;2022-08-03T11:42:42;3.17;;;1.60;;
18265;SDS011;9259;48.194;16.322;2022-08-03T11:45:13;3.17;;;1.70;;
18265;SDS011;9259;48.194;16.322;2022-08-03T11:47:41;3.47;;;1.70;;
18265;SDS011;9259;48.194;16.322;2022-08-03T11:50:09;3.85;;;1.90;;
18265;SDS011;9259;48.194;16.322;2022-08-03T11:52:38;2.40;;;1.73;;
18265;SDS011;9259;48.194;16.322;2022-08-03T11:55:08;2.75;;;1.60;;
18265;SDS011;9259;48.194;16.322;2022-08-03T11:57:37;6.28;;;1.70;;
18265;SDS011;9259;48.194;16.322;2022-08-03T12:02:54;3.20;;;1.40;;
18265;SDS011;9259;48.194;16.322;2022-08-03T12:05:43;3.15;;;1.60;;
18265;SDS011;9259;48.194;16.322;2022-08-03T12:08:13;3.42;;;1.75;;
18265;SDS011;9259;48.194;16.322;2022-08-03T12:10:46;4.22;;;1.45;;
18265;SDS011;9259;48.194;16.322;2022-08-03T12:13:15;2.65;;;1.75;;
18265;SDS011;9259;48.194;16.322;2022-08-03T12:15:49;4.43;;;1.60;;
18265;SDS011;9259;48.194;16.322;2022-08-03T12:18:18;4.22;;;1.80;;
18265;SDS011;9259;48.194;16.322;2022-08-03T12:20:47;2.88;;;1.70;;
18265;SDS011;9259;48.194;16.322;2022-08-03T12:23:16;4.55;;;1.67;;
18265;SDS011;9259;48.194;16.322;2022-08-03T12:25:47;2.42;;;1.55;;
18265;SDS011;9259;48.194;16.322;2022-08-03T12:28:15;6.53;;;1.40;;
18265;SDS011;9259;48.194;16.322;2022-08-03T12:30:50;2.28;;;1.58;;
18265;SDS011;9259;48.194;16.322;2022-08-03T12:33:19;2.33;;;1.70;;
18265;SDS011;9259;48.194;16.322;2022-08-03T12:35:49;4.65;;;1.65;;
18265;SDS011;9259;48.194;16.322;2022-08-03T12:38:29;3.08;;;1.60;;
18265;SDS011;9259;48.194;16.322;2022-08-03T12:40:58;3.33;;;1.60;;
18265;SDS011;9259;48.194;16.322;2022-08-03T12:43:27;4.38;;;1.60;;
18265;SDS011;9259;48.194;16.322;2022-08-03T12:46:13;2.17;;;1.60;;
18265;SDS011;9259;48.194;16.322;2022-08-03T12:48:57;2.88;;;1.38;;
18265;SDS011;9259;48.194;16.322;2022-08-03T12:51:27;1.50;;;1.40;;
18265;SDS011;9259;48.194;16.322;2022-08-03T12:53:56;4.50;;;1.67;;
18265;SDS011;9259;48.194;16.322;2022-08-03T12:56:24;5.00;;;1.75;;
18265;SDS011;9259;48.194;16.322;2022-08-03T12:58:52;2.85;;;1.60;;
18265;SDS011;9259;48.194;16.322;2022-08-03T13:01:22;3.17;;;1.50;;
18265;SDS011;9259;48.194;16.322;2022-08-03T13:03:52;7.55;;;1.50;;
18265;SDS011;9259;48.194;16.322;2022-08-03T13:06:21;3.45;;;1.60;;
18265;SDS011;9259;48.194;16.322;2022-08-03T13:08:49;2.72;;;1.85;;
18265;SDS011;9259;48.194;16.322;2022-08-03T13:11:29;1.60;;;1.30;;
18265;SDS011;9259;48.194;16.322;2022-08-03T13:13:57;2.63;;;1.38;;
18265;SDS011;9259;48.194;16.322;2022-08-03T13:16:26;5.53;;;1.60;;
18265;SDS011;9259;48.194;16.322;2022-08-03T13:18:54;3.22;;;1.67;;
18265;SDS011;9259;48.194;16.322;2022-08-03T13:21:22;2.50;;;1.85;;
18265;SDS011;9259;48.194;16.322;2022-08-03T13:23:50;1.92;;;1.50;;
18265;SDS011;9259;48.194;16.322;2022-08-03T13:26:18;7.95;;;1.75;;
18265;SDS011;9259;48.194;16.322;2022-08-03T13:28:46;6.00;;;1.63;;
18265;SDS011;9259;48.194;16.322;2022-08-03T13:31:14;2.20;;;1.70;;
18265;SDS011;9259;48.194;16.322;2022-08-03T13:33:43;2.38;;;1.63;;
18265;SDS011;9259;48.194;16.322;2022-08-03T13:36:14;2.72;;;1.52;;
18265;SDS011;9259;48.194;16.322;2022-08-03T13:38:42;1.73;;;1.63;;
18265;SDS011;9259;48.194;16.322;2022-08-03T13:41:10;2.13;;;1.60;;
18265;SDS011;9259;48.194;16.322;2022-08-03T13:43:38;2.97;;;1.58;;
18265;SDS011;9259;48.194;16.322;2022-08-03T13:46:06;3.10;;;1.55;;
18265;SDS011;9259;48.194;16.322;2022-08-03T13:48:34;2.33;;;1.27;;
18265;SDS011;9259;48.194;16.322;2022-08-03T13:51:04;2.78;;;1.65;;
18265;SDS011;9259;48.194;16.322;2022-08-03T13:53:32;3.08;;;1.50;;
18265;SDS011;9259;48.194;16.322;2022-08-03T13:56:00;4.88;;;1.52;;
18265;SDS011;9259;48.194;16.322;2022-08-03T13:58:28;7.65;;;1.67;;
18265;SDS011;9259;48.194;16.322;2022-08-03T14:00:56;2.03;;;1.77;;
18265;SDS011;9259;48.194;16.322;2022-08-03T14:03:24;3.15;;;1.75;;
18265;SDS011;9259;48.194;16.322;2022-08-03T14:05:52;3.55;;;1.90;;
18265;SDS011;9259;48.194;16.322;2022-08-03T14:08:21;3.80;;;1.55;;
18265;SDS011;9259;48.194;16.322;2022-08-03T14:10:49;1.65;;;1.30;;
18265;SDS011;9259;48.194;16.322;2022-08-03T14:13:19;4.07;;;1.90;;
18265;SDS011;9259;48.194;16.322;2022-08-03T14:15:47;5.55;;;1.88;;
18265;SDS011;9259;48.194;16.322;2022-08-03T14:18:15;4.78;;;1.70;;
18265;SDS011;9259;48.194;16.322;2022-08-03T14:20:43;9.70;;;1.95;;
18265;SDS011;9259;48.194;16.322;2022-08-03T14:23:12;8.95;;;1.70;;
18265;SDS011;9259;48.194;16.322;2022-08-03T14:25:41;2.65;;;1.70;;
18265;SDS011;9259;48.194;16.322;2022-08-03T14:28:09;2.38;;;1.30;;
18265;SDS011;9259;48.194;16.322;2022-08-03T14:30:37;4.90;;;1.60;;
18265;SDS011;9259;48.194;16.322;2022-08-03T14:33:05;6.60;;;1.52;;
18265;SDS011;9259;48.194;16.322;2022-08-03T14:35:32;2.67;;;1.60;;
18265;SDS011;9259;48.194;16.322;2022-08-03T14:38:00;4.93;;;1.60;;
18265;SDS011;9259;48.194;16.322;2022-08-03T14:40:28;2.63;;;1.50;;
18265;SDS011;9259;48.194;16.322;2022-08-03T14:42:57;2.45;;;1.42;;
18265;SDS011;9259;48.194;16.322;2022-08-03T14:45:25;12.07;;;2.00;;
18265;SDS011;9259;48.194;16.322;2022-08-03T14:47:53;4.10;;;1.70;;
18265;SDS011;9259;48.194;16.322;2022-08-03T14:50:20;3.80;;;1.70;;
18265;SDS011;9259;48.194;16.322;2022-08-03T14:52:49;2.00;;;1.40;;
18265;SDS011;9259;48.194;16.322;2022-08-03T14:55:17;3.90;;;1.60;;
18265;SDS011;9259;48.194;16.322;2022-08-03T14:57:44;6.40;;;1.35;;
18265;SDS011;9259;48.194;16.322;2022-08-03T15:00:14;4.03;;;1.75;;
18265;SDS011;9259;48.194;16.322;2022-08-03T15:02:42;3.00;;;1.67;;
18265;SDS011;9259;48.194;16.322;2022-08-03T15:05:10;8.75;;;1.55;;
18265;SDS011;9259;48.194;16.322;2022-08-03T15:07:39;3.70;;;1.50;;
18265;SDS011;9259;48.194;16.322;2022-08-03T15:10:07;3.65;;;1.65;;
18265;SDS011;9259;48.194;16.322;2022-08-03T15:12:35;2.45;;;1.77;;
18265;SDS011;9259;48.194;16.322;2022-08-03T15:15:03;3.20;;;1.45;;
18265;SDS011;9259;48.194;16.322;2022-08-03T15:17:34;6.97;;;1.70;;
18265;SDS011;9259;48.194;16.322;2022-08-03T15:20:02;3.33;;;1.67;;
18265;SDS011;9259;48.194;16.322;2022-08-03T15:22:31;4.63;;;1.90;;